Flight Track Log - Related Links

Times and Time Zones

All times are in EDT time to prevent confusion due to time zone crossing. See the SWA2131 flight status page for this flight to view local times or setup timezone preferences in your user account.

Time Position Orientation Groundspeed Altitude Reporting Facility
EDT Latitude Longitude Course Direction KTS MPH feet Rate Location/Type
Sat 04:07:08 PM 39.8833 -104.5667 78° East 205 236 8,000  Level Denver TRACON
Sat 04:08:36 PM 39.8644 -104.4178 99° East 315 362 10,500 2,416 Climbing Denver Center
Sat 04:09:37 PM 39.8522 -104.2833 97° East 353 406 14,000 3,122 Climbing Denver Center
Sat 04:10:39 PM 39.8603 -104.1442 86° East 384 442 16,900 3,171 Climbing Denver Center
Sat 04:11:40 PM 39.8686 -104.0000 86° East 395 455 20,500 3,024 Climbing Denver Center
Sat 04:12:42 PM 39.8775 -103.8397 86° East 412 474 23,100 2,049 Climbing Denver Center
Sat 04:13:43 PM 39.8861 -103.6992 85° East 414 476 24,700 1,756 Climbing Denver Center
Sat 04:14:45 PM 39.9069 -103.5361 80° East 449 517 26,700 1,902 Climbing Denver Center
Sat 04:15:46 PM 39.9258 -103.3669 82° East 464 534 28,600 1,902 Climbing Denver Center
Sat 04:16:48 PM 39.9469 -103.1642 82° East 481 554 30,600 1,512 Climbing Denver Center
Sat 04:17:49 PM 39.9603 -103.0458 82° East 488 562 31,700 1,902 Climbing Denver Center
Sat 04:18:51 PM 39.9856 -102.8125 82° East 486 559 34,500 2,129 Climbing Denver Center
Sat 04:19:53 PM 40.0042 -102.6522 81° East 479 551 36,100 1,610 Climbing Denver Center
Sat 04:20:54 PM 40.0228 -102.4631 83° East 473 544 37,800 1,415 Climbing Denver Center
Sat 04:21:56 PM 40.0400 -102.3053 82° East 462 532 39,000 585 Climbing Denver Center
Sat 04:22:57 PM 40.0586 -102.1208 82° East 461 531 39,000  Level Denver Center
Sat 04:23:59 PM 40.0747 -101.9611 82° East 465 535 39,000  Level Denver Center
Sat 04:25:00 PM 40.0928 -101.8014 82° East 466 536 39,000  Level Denver Center
Sat 04:26:02 PM 40.1114 -101.6103 83° East 474 545 39,000  Level Denver Center
Sat 04:27:03 PM 40.1267 -101.4442 83° East 480 552 39,000  Level Denver Center
Sat 04:28:04 PM 40.1447 -101.2511 83° East 482 555 39,000  Level Denver Center
Sat 04:29:06 PM 40.1592 -101.0856 83° East 481 554 39,000  Level Denver Center
Sat 04:30:07 PM 40.1767 -100.8942 83° East 479 551 39,000  Level Denver Center
Sat 04:31:09 PM 40.1922 -100.7281 83° East 483 556 39,000  Level Denver Center
Sat 04:32:10 PM 40.2050 -100.5600 84° East 486 559 39,000  Level Denver Center
Sat 04:33:12 PM 40.2075 -100.3628 89° East 489 563 39,000  Level Denver Center
Sat 04:34:13 PM 40.2103 -100.1939 89° East 489 563 39,000  Level Denver Center
Sat 04:35:15 PM 40.2131 -99.9967 89° East 488 562 39,000  Level Denver Center
Sat 04:36:16 PM 40.2156 -99.8172 89° East 493 567 39,000  Level Denver Center
Sat 04:37:18 PM 40.2172 -99.6422 89° East 484 557 39,000  Level Denver Center
Sat 04:38:19 PM 40.2189 -99.4650 89° East 487 560 39,000  Level Denver Center
Sat 04:39:20 PM 40.2197 -99.2900 90° East 483 556 39,000  Level Denver Center
Sat 04:40:22 PM 40.2217 -99.1136 89° East 486 559 39,000  Level Denver Center
Sat 04:41:23 PM 40.2222 -98.9381 90° East 485 558 39,000  Level Denver Center
Sat 04:41:44 PM 40.2231 -98.8681 89° East 486 559 39,000  Level Minneapolis Center
Sat 04:42:45 PM 40.2231 -98.6944 90° East 483 556 39,000  Level Minneapolis Center
Sat 04:43:47 PM 40.2231 -98.5219 90° East 478 550 39,000  Level Minneapolis Center
Sat 04:44:48 PM 40.2228 -98.3156 90° East 476 548 39,000  Level Minneapolis Center
Sat 04:45:50 PM 40.2225 -98.1442 90° East 473 544 39,000  Level Minneapolis Center
Sat 04:46:51 PM 40.2219 -97.9731 90° East 473 544 39,000  Level Minneapolis Center
Sat 04:47:52 PM 40.2200 -97.7989 91° East 477 549 39,000  Level Minneapolis Center
Sat 04:48:54 PM 40.2186 -97.6258 91° East 477 549 39,000  Level Minneapolis Center
Sat 04:49:55 PM 40.2178 -97.4519 90° East 478 550 39,000  Level Minneapolis Center
Sat 04:50:57 PM 40.2158 -97.2717 91° East 479 551 39,000  Level Minneapolis Center
Sat 04:51:58 PM 40.2142 -97.0989 91° East 476 548 39,000  Level Minneapolis Center
Sat 04:53:00 PM 40.2128 -96.9275 91° East 474 545 39,000  Level Minneapolis Center
Sat 04:54:01 PM 40.2100 -96.7553 91° East 474 545 39,000  Level Minneapolis Center
Sat 04:55:03 PM 40.2072 -96.5497 91° East 474 545 39,000  Level Minneapolis Center
Sat 04:56:04 PM 40.2036 -96.3767 92° East 476 548 39,000  Level Minneapolis Center
Sat 04:57:06 PM 40.2028 -96.2031 90° East 477 549 39,000  Level Minneapolis Center
Sat 04:58:07 PM 40.2325 -96.0311 77° East 484 557 39,000  Level Minneapolis Center
Sat 04:59:08 PM 40.2644 -95.8575 76° East 490 564 39,000  Level Minneapolis Center
Sat 05:00:10 PM 40.2969 -95.6856 76° East 491 565 39,000  Level Minneapolis Center
Sat 05:01:11 PM 40.3278 -95.5153 77° East 485 558 39,000  Level Minneapolis Center
Sat 05:02:13 PM 40.3578 -95.3442 77° East 485 558 39,000  Level Minneapolis Center
Sat 05:03:14 PM 40.3969 -95.1364 76° East 488 562 39,000  Level Minneapolis Center
Sat 05:05:17 PM 40.4583 -94.7911 77° East 488 562 39,000  Level Minneapolis Center
Sat 05:06:18 PM 40.4875 -94.6175 77° East 489 563 39,000  Level Minneapolis Center
Sat 05:07:19 PM 40.5178 -94.4347 78° East 488 562 39,000  Level Minneapolis Center
Sat 05:08:21 PM 40.5483 -94.2611 77° East 489 563 39,000  Level Minneapolis Center
Sat 05:09:22 PM 40.5775 -94.0883 77° East 487 560 39,000  Level Minneapolis Center
Sat 05:10:23 PM 40.6056 -93.9178 78° East 483 556 39,000  Level Minneapolis Center
Sat 05:11:25 PM 40.6297 -93.7442 80° East 485 558 39,000  Level Minneapolis Center
Sat 05:12:26 PM 40.6536 -93.5708 80° East 485 558 39,000  Level Minneapolis Center
Sat 05:13:28 PM 40.6786 -93.3947 79° East 488 562 39,000 -390 Level Minneapolis Center
Sat 05:14:29 PM 40.7100 -93.1836 79° East 490 564 38,200 -885 Descending Minneapolis Center
Sat 05:15:30 PM 40.7339 -93.0064 80° East 492 566 37,200 -927 Descending Minneapolis Center
Sat 05:16:32 PM 40.7586 -92.8292 80° East 491 565 36,300 -835 Descending Minneapolis Center
Sat 05:16:49 PM 40.7633 -92.7925 80° East 490 564 36,100 -923 Descending Chicago Center
Sat 05:17:50 PM 40.7883 -92.6133 80° East 495 570 35,100 -976 Descending Chicago Center
Sat 05:18:52 PM 40.8142 -92.4303 79° East 506 582 34,100 -1,073 Descending Chicago Center
Sat 05:19:53 PM 40.8425 -92.2200 80° East 487 560 32,900 -1,073 Descending Chicago Center
Sat 05:20:55 PM 40.8644 -92.0489 80° East 477 549 31,900 -919 Descending Chicago Center
Sat 05:21:57 PM 40.8878 -91.8794 80° East 471 542 31,000 -439 Descending Chicago Center
Sat 05:22:58 PM 40.9094 -91.7086 80° East 472 543 31,000  Level Chicago Center
Sat 05:24:00 PM 40.9303 -91.5389 81° East 471 542 31,000  Level Chicago Center
Sat 05:25:01 PM 40.9522 -91.3725 80° East 465 535 31,000 -98 Level Chicago Center
Sat 05:26:03 PM 40.9742 -91.1953 81° East 464 534 30,800 -1,317 Descending Chicago Center
Sat 05:27:04 PM 40.9939 -91.0244 81° East 467 537 28,300 -2,293 Descending Chicago Center
Sat 05:28:06 PM 41.0144 -90.8575 81° East 462 532 26,100 -1,887 Descending Chicago Center
Sat 05:29:08 PM 41.0350 -90.6925 81° East 455 524 24,400 -1,415 Descending Chicago Center
Sat 05:30:09 PM 41.0575 -90.4969 81° East 448 516 23,200 -683 Descending Chicago Center
Sat 05:31:11 PM 41.0761 -90.3394 81° East 434 499 23,000 -439 Descending Chicago Center
Sat 05:32:12 PM 41.0942 -90.1831 81° East 427 491 22,300 -1,268 Descending Chicago Center
Sat 05:33:14 PM 41.1117 -90.0292 81° East 420 483 20,400 -1,839 Descending Chicago Center
Sat 05:34:16 PM 41.1289 -89.8728 82° East 424 488 18,500 -1,756 Descending Chicago Center
Sat 05:35:17 PM 41.1450 -89.7219 82° East 413 475 16,800 -1,317 Descending Chicago Center
Sat 05:36:19 PM 41.1611 -89.5797 81° East 390 449 15,800 -968 Descending Chicago Center
Sat 05:37:21 PM 41.1708 -89.4369 85° East 388 447 14,800 -976 Descending Chicago Center
Sat 05:38:22 PM 41.1808 -89.2936 85° East 388 447 13,800 -1,024 Descending Chicago Center
Sat 05:39:24 PM 41.1917 -89.1475 84° East 380 437 12,700 -1,016 Descending Chicago Center
Sat 05:40:26 PM 41.2419 -89.0319 60° Northeast 365 420 11,700 -1,073 Descending Chicago Center
Sat 05:41:27 PM 41.2983 -88.8978 61° Northeast 348 400 10,500 -829 Descending Chicago Center
Sat 05:42:29 PM 41.3425 -88.7939 60° Northeast 329 379 10,000 -484 Descending Chicago Center
Sat 05:43:31 PM 41.3833 -88.6881 63° Northeast 324 373 9,500 -488 Descending Chicago Center
Sat 05:44:32 PM 41.4222 -88.5817 64° Northeast 324 373 9,000 -634 Descending Chicago Center
Sat 05:45:34 PM 41.4597 -88.4747 65° Northeast 321 369 8,200 -726 Descending Chicago Center
Sat 05:46:36 PM 41.4986 -88.3683 64° Northeast 320 368 7,500 -581 Descending Chicago Center
Sat 05:47:38 PM 41.5131 -88.2522 81° East 317 365 7,000 -293 Descending Chicago Center
Sat 05:48:39 PM 41.5261 -88.1392 81° East 308 354 6,900 -738 Descending Chicago Center
Sat 05:49:40 PM 41.5417 -88.0269 79° East 306 352 5,500 -1,268 Descending Chicago Center
Sat 05:50:42 PM 41.5581 -87.9203 78° East 297 342 4,300 -1,161 Descending Chicago Center
Sat 05:51:44 PM 41.5819 -87.8017 75° East 286 329 3,100 -878 Descending Chicago Center
Sat 05:52:45 PM 41.6272 -87.7281 51° Northeast 268 308 2,500 -293 Descending Chicago Center
Sat 05:53:47 PM 41.6661 -87.6686 49° Northeast 240 276 2,500 -387 Level Chicago Center
Sat 05:54:49 PM 41.7167 -87.6644 North 203 234 1,700 -439 Descending Chicago Center
Sat 05:55:50 PM 41.7456 -87.6986 319° Northwest 163 188 1,600 -390 Descending Chicago Center
Sat 05:56:52 PM 41.7714 -87.7333 315° West 142 163 900 -677 Descending Chicago Center
Sat 05:58:00 PM 41.7833 -87.7500 51° Northeast  Level FlightAware Approximate

Login

Don't have an account? Register now (free) for customized features, flight alerts, and more!